Terminal Aerodrome Forecast
Issued by NWS Duluth, MN

Home | Current Version | Previous Version | Text Only | Print | Product List | Glossary On
Versions: 1 2 3 4 5 6 7 8 9 10 11 12 13 14 15 16 17 18 19 20 21
000
FTUS43 KDLH 310539
TAFDLH
TAF
KDLH 310539Z 3106/0106 22008KT P6SM SKC
     FM310900 22005KT 5SM BR SCT006
      TEMPO 3109/3113 1 1/2SM BR BKN006
     FM311600 21014G22KT P6SM SCT040 SCT250
     FM010100 22011KT P6SM SCT040 BKN120=

USA.gov is the U.S. government's official web portal to all federal, state and local government web resources and services.